Time;durP1;ratioP1;P1;durP2;ratioP2;P2;SDS_P1;SDS_P2;PMS_P1;PMS_P2;Temp;Humidity;BMP_temperature;BMP_pressure;BME280_temperature;BME280_humidity;BME280_pressure;Samples;Min_cycle;Max_cycle;Signal;HPM_P1;HPM_P2
2024/02/04 00:00:52;;;;;;;7.80;7.60;;;21.50;54.90;;;;;;5011525;28;20466;-68
2024/02/04 00:03:21;;;;;;;7.97;7.77;;;21.50;54.90;;;;;;5011480;28;20497;-68
2024/02/04 00:05:48;;;;;;;7.33;7.13;;;21.40;54.80;;;;;;5011511;28;20461;-68
2024/02/04 00:08:17;;;;;;;8.23;8.03;;;21.40;54.90;;;;;;5011604;28;20474;-68
2024/02/04 00:10:44;;;;;;;7.53;7.43;;;21.40;54.90;;;;;;5020422;22;20498;-65
2024/02/04 00:13:11;;;;;;;7.17;7.07;;;21.40;54.90;;;;;;5005505;28;20478;-66
2024/02/04 00:15:38;;;;;;;7.00;6.90;;;21.40;55.00;;;;;;5006492;28;20545;-66
2024/02/04 00:18:07;;;;;;;7.83;7.63;;;21.40;54.90;;;;;;5000750;28;20447;-68
2024/02/04 00:20:34;;;;;;;8.17;7.97;;;21.30;54.90;;;;;;5003040;28;20458;-66
2024/02/04 00:23:01;;;;;;;7.80;7.60;;;21.30;54.90;;;;;;5003934;28;20467;-67
2024/02/04 00:25:29;;;;;;;7.33;7.23;;;21.30;54.90;;;;;;5006465;28;20480;-68
2024/02/04 00:27:56;;;;;;;7.30;7.10;;;21.30;55.00;;;;;;5005850;28;20454;-67
2024/02/04 00:30:23;;;;;;;7.77;7.57;;;21.30;55.00;;;;;;5002687;28;20459;-68
2024/02/04 00:32:50;;;;;;;7.00;6.90;;;21.20;54.90;;;;;;5002817;28;20513;-68
2024/02/04 00:35:18;;;;;;;7.47;7.27;;;21.20;55.00;;;;;;5005637;28;20466;-67
2024/02/04 00:37:45;;;;;;;7.43;7.33;;;21.20;55.00;;;;;;5006250;28;20482;-67
2024/02/04 00:40:12;;;;;;;7.50;7.40;;;21.20;55.00;;;;;;5003509;28;20509;-67
2024/02/04 00:42:39;;;;;;;7.70;7.50;;;21.20;55.00;;;;;;5002542;28;20594;-67
2024/02/04 00:45:07;;;;;;;7.00;6.90;;;21.20;55.00;;;;;;5002429;28;20475;-66
2024/02/04 00:47:34;;;;;;;7.20;7.10;;;21.20;55.00;;;;;;5006403;28;20474;-67
2024/02/04 00:50:01;;;;;;;7.40;7.20;;;21.10;55.00;;;;;;5004825;28;20497;-67
2024/02/04 00:52:29;;;;;;;7.60;7.40;;;21.10;55.10;;;;;;5002409;28;20510;-67
2024/02/04 00:54:56;;;;;;;7.43;7.23;;;21.10;55.10;;;;;;5002267;28;20469;-67
2024/02/04 00:57:23;;;;;;;7.57;7.37;;;21.10;55.10;;;;;;5005846;28;20480;-67
2024/02/04 00:59:51;;;;;;;7.10;7.00;;;21.10;55.10;;;;;;5005712;28;20497;-67
2024/02/04 01:02:18;;;;;;;7.27;7.07;;;21.10;55.20;;;;;;5002447;28;20435;-66
2024/02/04 01:04:45;;;;;;;7.27;7.17;;;21.10;55.20;;;;;;5001950;28;20479;-66
2024/02/04 01:07:11;;;;;;;7.80;7.60;;;21.00;55.10;;;;;;5003418;28;20954;-67
2024/02/04 01:09:40;;;;;;;7.60;7.50;;;21.10;55.30;;;;;;5005436;28;20498;-67
2024/02/04 01:12:08;;;;;;;7.63;7.53;;;21.00;55.20;;;;;;5003794;28;20516;-67
2024/02/04 01:14:35;;;;;;;7.30;7.20;;;21.00;55.30;;;;;;5002101;28;21010;-66
2024/02/04 01:17:02;;;;;;;7.53;7.30;;;21.00;55.30;;;;;;5000635;28;20447;-67
2024/02/04 01:19:29;;;;;;;7.80;7.60;;;21.00;55.30;;;;;;5005264;28;20489;-67
2024/02/04 01:21:58;;;;;;;7.63;7.53;;;21.00;55.30;;;;;;5005002;28;20442;-66
2024/02/04 01:24:25;;;;;;;6.80;6.70;;;20.90;55.20;;;;;;4997041;28;20457;-67
2024/02/04 01:26:53;;;;;;;7.13;7.03;;;20.90;55.30;;;;;;5005089;28;20999;-67
2024/02/04 01:29:20;;;;;;;6.83;6.60;;;20.90;55.30;;;;;;5001567;28;20439;-66
2024/02/04 01:31:47;;;;;;;6.50;6.40;;;20.90;55.30;;;;;;5001669;28;20485;-67
2024/02/04 01:34:13;;;;;;;7.00;6.77;;;20.90;55.30;;;;;;5003794;28;20482;-67
2024/02/04 01:36:40;;;;;;;6.90;6.80;;;20.90;55.40;;;;;;5005032;28;20482;-66
2024/02/04 01:39:08;;;;;;;6.97;6.87;;;20.90;55.30;;;;;;5003259;28;20925;-66
2024/02/04 01:41:36;;;;;;;7.07;6.97;;;20.90;55.40;;;;;;5001531;28;20882;-66
2024/02/04 01:44:04;;;;;;;8.00;7.47;;;20.80;55.30;;;;;;5001908;28;20443;-67
2024/02/04 01:46:31;;;;;;;7.03;6.93;;;20.80;55.20;;;;;;5004822;28;20452;-65
2024/02/04 01:48:58;;;;;;;6.87;6.77;;;20.80;55.30;;;;;;5004445;28;20474;-67
2024/02/04 01:51:25;;;;;;;7.30;7.00;;;20.80;55.30;;;;;;5001282;28;20518;-67
2024/02/04 01:53:52;;;;;;;6.93;6.83;;;20.80;55.30;;;;;;5000878;28;20525;-67
2024/02/04 01:56:21;;;;;;;6.77;6.57;;;20.80;55.30;;;;;;5004184;28;20466;-66
2024/02/04 01:58:48;;;;;;;6.63;6.53;;;20.80;55.30;;;;;;5004629;28;20478;-67
2024/02/04 02:01:17;;;;;;;6.50;6.40;;;20.80;55.40;;;;;;5001956;28;20497;-67
2024/02/04 02:03:44;;;;;;;6.80;6.60;;;20.80;55.40;;;;;;5000896;28;20475;-66
2024/02/04 02:06:11;;;;;;;6.30;6.20;;;20.80;55.40;;;;;;5002866;28;20481;-67
2024/02/04 02:08:38;;;;;;;7.07;6.97;;;20.70;55.40;;;;;;5004356;28;20501;-66
2024/02/04 02:11:12;;;;;;;6.53;6.43;;;20.70;55.30;;;;;;5002931;28;20540;-67
2024/02/04 02:13:41;;;;;;;6.80;6.70;;;20.70;55.40;;;;;;5000689;28;20510;-66
2024/02/04 02:16:12;;;;;;;6.50;6.40;;;20.70;55.40;;;;;;5002239;28;20447;-66
2024/02/04 02:18:46;;;;;;;6.33;6.23;;;20.70;55.50;;;;;;5004350;28;20451;-67
2024/02/04 02:21:34;;;;;;;6.83;6.73;;;20.70;55.50;;;;;;5000485;28;20498;-67
2024/02/04 02:24:11;;;;;;;6.20;6.10;;;20.70;55.50;;;;;;5001222;28;20443;-67
2024/02/04 02:26:40;;;;;;;6.70;6.60;;;20.60;55.50;;;;;;5004187;28;20472;-67
2024/02/04 02:29:08;;;;;;;6.90;6.80;;;20.60;55.50;;;;;;5002784;28;20802;-66
2024/02/04 02:31:35;;;;;;;7.20;7.00;;;20.70;55.60;;;;;;5000113;28;20435;-66
2024/02/04 02:34:03;;;;;;;6.80;6.60;;;20.60;55.50;;;;;;5001014;28;20482;-66
2024/02/04 02:36:34;;;;;;;6.77;6.67;;;20.60;55.60;;;;;;5004018;28;20481;-68
2024/02/04 02:39:10;;;;;;;7.47;7.37;;;20.60;55.60;;;;;;5003460;28;20442;-67
2024/02/04 02:41:39;;;;;;;7.10;7.00;;;20.60;55.60;;;;;;5000222;28;20529;-66
2024/02/04 02:44:08;;;;;;;6.97;6.87;;;20.60;55.60;;;;;;5001344;28;20475;-67
2024/02/04 02:46:36;;;;;;;7.10;7.00;;;20.60;55.70;;;;;;5003843;28;20478;-66
2024/02/04 02:49:04;;;;;;;6.20;6.10;;;20.60;55.70;;;;;;5003059;28;20963;-67
2024/02/04 02:51:30;;;;;;;6.70;6.60;;;20.60;55.80;;;;;;4999594;28;20474;-66
2024/02/04 02:53:57;;;;;;;6.40;6.30;;;20.60;55.80;;;;;;5000346;28;20588;-67
2024/02/04 02:56:24;;;;;;;6.47;6.37;;;20.60;55.80;;;;;;4992318;28;20478;-67
2024/02/04 02:58:52;;;;;;;6.57;6.47;;;20.60;55.80;;;;;;5000302;28;20485;-67
2024/02/04 03:01:19;;;;;;;6.83;6.63;;;20.60;55.80;;;;;;5002842;28;20495;-67
2024/02/04 03:03:46;;;;;;;6.57;6.47;;;20.60;55.90;;;;;;5000387;28;20466;-67
2024/02/04 03:06:13;;;;;;;6.60;6.50;;;20.50;56.40;;;;;;5001930;28;20478;-66
2024/02/04 03:08:40;;;;;;;6.60;6.50;;;20.50;55.80;;;;;;5003569;28;20477;-67
2024/02/04 03:11:07;;;;;;;8.80;8.60;;;20.50;55.90;;;;;;5001961;28;20493;-66
2024/02/04 03:13:34;;;;;;;7.63;7.53;;;20.50;55.90;;;;;;5000259;28;20893;-67
2024/02/04 03:16:02;;;;;;;8.43;8.23;;;20.50;55.90;;;;;;5000066;28;20455;-67
2024/02/04 03:18:29;;;;;;;8.30;8.10;;;20.50;55.90;;;;;;5003614;28;20481;-66
2024/02/04 03:20:56;;;;;;;7.20;7.10;;;20.50;56.00;;;;;;5003121;28;20494;-67
2024/02/04 03:23:22;;;;;;;7.33;7.23;;;20.50;56.00;;;;;;5000234;28;20500;-67
2024/02/04 03:25:49;;;;;;;8.00;7.80;;;20.50;55.90;;;;;;5000021;28;20486;-67
2024/02/04 03:28:16;;;;;;;7.90;7.80;;;20.50;56.00;;;;;;5002145;28;20471;-67
2024/02/04 03:30:43;;;;;;;9.00;8.80;;;20.50;56.00;;;;;;5002999;28;20559;-66
2024/02/04 03:33:11;;;;;;;8.00;7.90;;;20.50;56.00;;;;;;5001842;28;20509;-67
2024/02/04 03:35:38;;;;;;;8.30;7.93;;;20.40;55.90;;;;;;4999940;28;20885;-67
2024/02/04 03:38:05;;;;;;;7.73;7.63;;;20.50;56.00;;;;;;5000157;28;20628;-67
2024/02/04 03:40:32;;;;;;;7.70;7.60;;;20.40;55.90;;;;;;5003179;28;20502;-67
2024/02/04 03:42:59;;;;;;;7.90;7.80;;;20.40;55.90;;;;;;5003322;28;20474;-67
2024/02/04 03:45:26;;;;;;;8.00;7.90;;;20.40;55.90;;;;;;4999947;28;20471;-66
2024/02/04 03:47:52;;;;;;;7.70;7.50;;;20.40;56.00;;;;;;5003597;28;20474;-67
2024/02/04 03:50:21;;;;;;;7.70;7.60;;;20.40;56.00;;;;;;5005637;28;20494;-67
2024/02/04 03:52:48;;;;;;;7.90;7.80;;;20.40;56.00;;;;;;5006918;28;20912;-66
2024/02/04 03:55:15;;;;;;;7.63;7.53;;;20.40;56.00;;;;;;5005039;28;20837;-67
2024/02/04 03:57:41;;;;;;;7.00;6.90;;;20.40;56.10;;;;;;5003697;28;20477;-67
2024/02/04 04:00:10;;;;;;;7.10;7.00;;;20.40;56.10;;;;;;5003872;28;20463;-67
2024/02/04 04:02:36;;;;;;;6.90;6.80;;;20.40;56.10;;;;;;5006711;28;20442;-67
2024/02/04 04:05:04;;;;;;;6.70;6.60;;;20.40;56.10;;;;;;5006547;28;20840;-67
2024/02/04 04:07:33;;;;;;;6.70;6.60;;;20.40;56.10;;;;;;5003425;28;20453;-67
2024/02/04 04:09:59;;;;;;;7.10;7.00;;;20.40;56.10;;;;;;5002475;28;20528;-67
2024/02/04 04:12:26;;;;;;;7.40;7.30;;;20.30;56.00;;;;;;5006329;28;20519;-67
2024/02/04 04:14:54;;;;;;;6.97;6.87;;;20.30;56.00;;;;;;5006518;28;20520;-66
2024/02/04 04:17:20;;;;;;;6.60;6.50;;;20.30;56.00;;;;;;5004135;28;20452;-67
2024/02/04 04:19:47;;;;;;;6.87;6.77;;;20.30;56.10;;;;;;5000974;28;20493;-67
2024/02/04 04:22:14;;;;;;;6.80;6.60;;;20.30;56.00;;;;;;5004711;28;20516;-66
2024/02/04 04:24:43;;;;;;;7.20;7.10;;;20.30;56.00;;;;;;5002941;28;20439;-67
2024/02/04 04:27:10;;;;;;;6.37;6.27;;;20.30;56.10;;;;;;5003810;28;20447;-67
2024/02/04 04:29:37;;;;;;;7.00;6.90;;;20.30;56.10;;;;;;5006196;28;20497;-66
2024/02/04 04:32:05;;;;;;;7.30;7.20;;;20.30;56.00;;;;;;5005659;28;20581;-66
2024/02/04 04:34:31;;;;;;;7.20;7.10;;;20.30;56.10;;;;;;5002631;28;20510;-67
2024/02/04 04:36:58;;;;;;;6.90;6.80;;;20.30;56.10;;;;;;5002864;28;20447;-67
2024/02/04 04:39:25;;;;;;;7.20;7.00;;;20.30;56.10;;;;;;5005151;28;20473;-66
2024/02/04 04:41:53;;;;;;;7.57;7.37;;;20.30;56.10;;;;;;5006190;28;20469;-67
2024/02/04 04:44:20;;;;;;;6.80;6.70;;;20.30;56.10;;;;;;5003628;28;20491;-67
2024/02/04 04:46:48;;;;;;;7.00;6.90;;;20.30;56.20;;;;;;5002751;28;20485;-67
2024/02/04 04:49:15;;;;;;;7.10;7.00;;;20.30;56.20;;;;;;5003587;28;20447;-65
2024/02/04 04:51:46;;;;;;;6.90;6.80;;;20.30;56.20;;;;;;5005912;28;20480;-67
2024/02/04 04:54:12;;;;;;;7.00;6.90;;;20.30;56.20;;;;;;5004365;28;20481;-67
2024/02/04 04:56:40;;;;;;;6.53;6.43;;;20.30;56.20;;;;;;5002331;28;20486;-66
2024/02/04 04:59:09;;;;;;;6.80;6.70;;;20.30;56.30;;;;;;5001868;28;20449;-67
2024/02/04 05:01:35;;;;;;;7.30;7.20;;;20.20;56.20;;;;;;5005250;28;20481;-66
2024/02/04 05:04:02;;;;;;;7.00;6.90;;;20.30;56.40;;;;;;5005552;28;20969;-66
2024/02/04 05:06:29;;;;;;;7.40;7.30;;;20.30;56.30;;;;;;4994291;28;20489;-66
2024/02/04 05:08:56;;;;;;;6.80;6.70;;;20.30;56.30;;;;;;5002193;28;20482;-66
2024/02/04 05:11:23;;;;;;;7.50;7.40;;;20.30;56.40;;;;;;5004312;28;20902;-65
2024/02/04 05:13:50;;;;;;;8.30;8.10;;;20.30;56.40;;;;;;5005083;28;20505;-67
2024/02/04 05:16:18;;;;;;;7.40;7.30;;;20.20;56.20;;;;;;5003925;28;20473;-67
2024/02/04 05:18:45;;;;;;;7.57;7.47;;;20.20;56.20;;;;;;5002148;28;21156;-66
2024/02/04 05:21:12;;;;;;;7.13;7.03;;;20.20;56.20;;;;;;5002683;28;20498;-66
2024/02/04 05:23:39;;;;;;;6.67;6.57;;;20.20;56.20;;;;;;5005232;28;20469;-67
2024/02/04 05:26:06;;;;;;;7.10;7.00;;;20.20;56.30;;;;;;5004749;28;20492;-66
2024/02/04 05:28:33;;;;;;;7.43;7.33;;;20.30;56.40;;;;;;5001797;28;20931;-67
2024/02/04 05:31:02;;;;;;;6.90;6.80;;;20.20;56.40;;;;;;5001629;28;20506;-65
2024/02/04 05:33:30;;;;;;;7.20;7.10;;;20.20;56.40;;;;;;5004665;28;20482;-67
2024/02/04 05:35:57;;;;;;;7.30;7.20;;;20.20;56.50;;;;;;5005289;28;20965;-66
2024/02/04 05:38:24;;;;;;;7.30;7.20;;;20.20;56.40;;;;;;5002171;28;20470;-66
2024/02/04 05:40:51;;;;;;;6.90;6.80;;;20.20;56.50;;;;;;5001429;28;20463;-66
2024/02/04 05:43:18;;;;;;;7.00;6.90;;;20.20;56.50;;;;;;5003000;28;20475;-65
2024/02/04 05:45:45;;;;;;;6.40;6.30;;;20.20;56.50;;;;;;4999830;28;20443;-66
2024/02/04 05:48:13;;;;;;;6.90;6.80;;;20.20;56.50;;;;;;5002139;28;21008;-67
2024/02/04 05:50:41;;;;;;;7.60;7.50;;;20.20;56.60;;;;;;5004751;28;21206;-66
2024/02/04 05:53:08;;;;;;;7.77;7.57;;;20.20;56.70;;;;;;5004336;28;20477;-67
2024/02/04 05:55:35;;;;;;;6.80;6.70;;;20.20;56.70;;;;;;5001257;28;20479;-66
2024/02/04 05:58:02;;;;;;;7.27;7.17;;;20.20;56.70;;;;;;5001357;28;20475;-65
2024/02/04 06:00:29;;;;;;;8.33;8.13;;;20.10;56.70;;;;;;5003637;28;21000;-66
2024/02/04 06:02:56;;;;;;;8.03;7.83;;;20.20;56.80;;;;;;5004554;28;20446;-67
2024/02/04 06:05:23;;;;;;;7.80;7.60;;;20.10;56.80;;;;;;5002403;28;20465;-67
2024/02/04 06:07:51;;;;;;;6.80;6.70;;;20.20;56.80;;;;;;5000657;28;20491;-66
2024/02/04 06:10:18;;;;;;;6.20;6.10;;;20.20;56.80;;;;;;5002170;28;20510;-67
2024/02/04 06:12:45;;;;;;;6.90;6.80;;;20.10;56.80;;;;;;5004375;28;20460;-66
2024/02/04 06:15:14;;;;;;;7.13;7.00;;;20.20;56.80;;;;;;5003635;28;20558;-66
2024/02/04 06:17:42;;;;;;;7.60;7.40;;;20.20;56.90;;;;;;5000940;28;20559;-66
2024/02/04 06:20:09;;;;;;;8.10;7.83;;;20.20;56.90;;;;;;5000501;28;20494;-66
2024/02/04 06:22:36;;;;;;;8.10;7.90;;;20.10;56.90;;;;;;5004183;28;20446;-67
2024/02/04 06:25:05;;;;;;;7.40;7.30;;;20.10;56.90;;;;;;5004341;28;20949;-66
2024/02/04 06:27:32;;;;;;;7.60;7.50;;;20.10;57.00;;;;;;5000720;28;20513;-67
2024/02/04 06:29:59;;;;;;;8.20;8.00;;;20.10;56.80;;;;;;5000588;28;20837;-67
2024/02/04 06:32:26;;;;;;;9.33;8.73;;;20.10;57.00;;;;;;5002825;28;20548;-66
2024/02/04 06:34:55;;;;;;;7.50;7.30;;;20.10;57.50;;;;;;5004019;28;20559;-65
2024/02/04 06:37:22;;;;;;;7.57;7.47;;;20.10;57.00;;;;;;5002006;28;20450;-67
2024/02/04 06:39:49;;;;;;;7.77;7.67;;;20.10;57.00;;;;;;5000521;28;20494;-65
2024/02/04 06:42:17;;;;;;;7.50;7.30;;;20.10;57.10;;;;;;5001146;28;20470;-66
2024/02/04 06:44:45;;;;;;;8.00;7.80;;;20.10;57.60;;;;;;5004146;28;20474;-66
2024/02/04 06:47:13;;;;;;;7.43;7.27;;;20.10;57.00;;;;;;5003297;28;20820;-65
2024/02/04 06:49:40;;;;;;;7.87;7.67;;;20.10;57.20;;;;;;4996358;28;20476;-66
2024/02/04 06:52:07;;;;;;;7.50;7.30;;;20.10;57.20;;;;;;5003917;28;20474;-66
2024/02/04 06:54:34;;;;;;;6.77;6.67;;;20.10;57.10;;;;;;4992373;28;20518;-67
2024/02/04 06:57:01;;;;;;;7.00;6.90;;;20.10;57.10;;;;;;5000492;28;21203;-66
2024/02/04 06:59:29;;;;;;;7.20;7.10;;;20.10;57.10;;;;;;5002314;28;20484;-66
2024/02/04 07:01:56;;;;;;;7.60;7.40;;;20.10;57.10;;;;;;5003657;28;20473;-66
2024/02/04 07:04:24;;;;;;;6.97;6.87;;;20.10;57.30;;;;;;5001647;28;20466;-66
2024/02/04 07:06:51;;;;;;;6.80;6.70;;;20.10;57.40;;;;;;5000211;28;20883;-66
2024/02/04 07:09:18;;;;;;;7.30;7.20;;;20.00;57.30;;;;;;5001089;28;20453;-66
2024/02/04 07:11:45;;;;;;;7.13;7.03;;;20.00;57.40;;;;;;5003372;28;20529;-67
2024/02/04 07:14:12;;;;;;;7.30;7.00;;;20.10;57.30;;;;;;5003044;28;20488;-66
2024/02/04 07:16:40;;;;;;;7.50;7.40;;;20.10;57.50;;;;;;5000152;28;20483;-66
2024/02/04 07:19:07;;;;;;;7.33;7.23;;;20.10;57.40;;;;;;5000288;28;20443;-66
2024/02/04 07:21:34;;;;;;;6.80;6.70;;;20.10;57.50;;;;;;5005470;28;20438;-66
2024/02/04 07:24:01;;;;;;;6.70;6.60;;;20.10;57.60;;;;;;5007155;28;20482;-66
2024/02/04 07:26:28;;;;;;;7.30;7.20;;;20.10;57.60;;;;;;5006418;28;20866;-66
2024/02/04 07:28:55;;;;;;;7.43;7.20;;;20.10;57.60;;;;;;5007485;28;20481;-67
2024/02/04 07:31:22;;;;;;;7.10;7.00;;;20.10;57.60;;;;;;5005658;28;20527;-66
2024/02/04 07:33:51;;;;;;;7.33;7.13;;;20.10;58.10;;;;;;5003824;28;20828;-66
2024/02/04 07:36:18;;;;;;;8.17;7.97;;;20.10;57.70;;;;;;5004765;28;20484;-66
2024/02/04 07:38:44;;;;;;;7.27;6.97;;;20.10;57.60;;;;;;5004067;28;20521;-66
2024/02/04 07:41:14;;;;;;;8.13;7.47;;;20.00;57.50;;;;;;5003896;28;20494;-65
2024/02/04 07:43:41;;;;;;;7.50;7.40;;;20.00;57.60;;;;;;5007144;28;20473;-66
2024/02/04 07:46:09;;;;;;;7.37;7.27;;;20.00;57.60;;;;;;5007077;28;20450;-66
2024/02/04 07:48:36;;;;;;;7.50;7.40;;;20.00;57.60;;;;;;4995050;28;20445;-67
2024/02/04 07:51:04;;;;;;;7.73;7.60;;;20.00;57.70;;;;;;5003595;28;20494;-66
2024/02/04 07:53:31;;;;;;;7.53;7.43;;;20.00;57.70;;;;;;5006229;28;20474;-67
2024/02/04 07:55:58;;;;;;;8.03;7.73;;;20.00;57.70;;;;;;5006841;28;20509;-66
2024/02/04 07:58:26;;;;;;;7.10;7.00;;;20.00;57.60;;;;;;5004954;28;20948;-65
2024/02/04 08:00:52;;;;;;;8.00;7.60;;;20.00;57.60;;;;;;5000992;28;20563;-65
2024/02/04 08:03:19;;;;;;;7.70;7.50;;;20.00;57.70;;;;;;5004323;28;20439;-66
2024/02/04 08:05:46;;;;;;;7.30;7.20;;;20.00;57.50;;;;;;5006852;28;20497;-65
2024/02/04 08:08:14;;;;;;;8.77;8.47;;;20.00;57.60;;;;;;5006451;28;20481;-66
2024/02/04 08:10:41;;;;;;;8.67;8.30;;;20.00;57.80;;;;;;5002822;28;20509;-66
2024/02/04 08:13:08;;;;;;;8.03;7.60;;;20.00;57.70;;;;;;5002614;28;20474;-65
2024/02/04 08:15:35;;;;;;;9.43;8.70;;;20.00;57.70;;;;;;5006233;28;20481;-66
2024/02/04 08:18:02;;;;;;;9.20;8.50;;;20.00;58.10;;;;;;5007955;28;20478;-66
2024/02/04 08:20:29;;;;;;;8.50;8.00;;;20.00;58.30;;;;;;5005198;28;20913;-65
2024/02/04 08:22:56;;;;;;;9.17;8.77;;;20.00;58.40;;;;;;5005978;28;20442;-66
2024/02/04 08:25:24;;;;;;;9.50;9.03;;;20.00;58.40;;;;;;5004891;28;20480;-65
2024/02/04 08:27:51;;;;;;;8.80;8.50;;;20.00;58.60;;;;;;5003073;28;20474;-68
2024/02/04 08:30:18;;;;;;;9.17;8.43;;;20.10;60.40;;;;;;5002864;28;20505;-67
2024/02/04 08:32:46;;;;;;;9.23;8.70;;;20.10;60.30;;;;;;5007185;28;20525;-66
2024/02/04 08:35:13;;;;;;;13.47;9.20;;;20.10;61.00;;;;;;4990452;28;20522;-67
2024/02/04 08:37:40;;;;;;;9.50;8.97;;;20.20;61.50;;;;;;4998833;28;20482;-67
2024/02/04 08:40:11;;;;;;;11.53;9.00;;;20.20;61.70;;;;;;5006070;28;20462;-67
2024/02/04 08:42:43;;;;;;;9.50;8.67;;;20.20;61.90;;;;;;4976377;28;20807;-68
2024/02/04 08:45:14;;;;;;;9.23;8.80;;;20.30;62.30;;;;;;5010475;28;20446;-67
2024/02/04 08:47:42;;;;;;;8.90;8.50;;;20.30;62.40;;;;;;4994893;28;20955;-67
2024/02/04 08:50:13;;;;;;;9.10;8.70;;;20.30;62.40;;;;;;5010614;28;20462;-68
2024/02/04 08:52:41;;;;;;;10.60;9.80;;;20.40;62.40;;;;;;4979900;28;21002;-67
2024/02/04 08:55:09;;;;;;;10.10;9.80;;;20.40;62.50;;;;;;5009845;28;21075;-67
2024/02/04 08:57:48;;;;;;;9.83;9.13;;;20.40;62.60;;;;;;4997757;28;20489;-68
2024/02/04 09:00:21;;;;;;;10.50;8.60;;;20.50;62.50;;;;;;5005545;28;21054;-65
2024/02/04 09:02:50;;;;;;;9.33;8.73;;;20.50;62.20;;;;;;5001891;28;20455;-67
2024/02/04 09:05:20;;;;;;;8.93;8.47;;;20.60;61.80;;;;;;5002213;28;20451;-68
2024/02/04 09:07:50;;;;;;;9.57;8.97;;;20.60;61.50;;;;;;5005219;28;20498;-68
2024/02/04 09:10:17;;;;;;;9.70;9.30;;;20.60;61.10;;;;;;5004903;28;20512;-67
2024/02/04 09:12:49;;;;;;;9.23;8.83;;;20.60;60.90;;;;;;5001838;28;20533;-65
2024/02/04 09:15:26;;;;;;;10.27;9.23;;;20.70;60.70;;;;;;5002129;28;20514;-67
2024/02/04 09:17:55;;;;;;;9.47;9.07;;;20.70;60.50;;;;;;5005576;28;20474;-69
2024/02/04 09:20:23;;;;;;;10.77;10.33;;;20.80;60.70;;;;;;5004191;28;20470;-69
2024/02/04 09:22:53;;;;;;;10.40;10.00;;;20.80;61.10;;;;;;5001249;28;20870;-68
2024/02/04 09:25:21;;;;;;;9.80;9.50;;;20.80;60.90;;;;;;5002266;28;20810;-67
2024/02/04 09:27:52;;;;;;;10.07;9.57;;;20.80;60.90;;;;;;5005378;28;20478;-71
2024/02/04 09:30:28;;;;;;;10.80;10.30;;;20.90;60.90;;;;;;5005001;28;20479;-69
2024/02/04 09:32:58;;;;;;;9.80;9.40;;;20.90;60.70;;;;;;4985537;28;20451;-66
2024/02/04 09:35:25;;;;;;;9.97;9.50;;;21.00;60.60;;;;;;4998586;28;20482;-66
2024/02/04 09:37:52;;;;;;;9.17;8.90;;;21.00;60.00;;;;;;4989166;28;20475;-65
2024/02/04 09:40:19;;;;;;;9.50;9.30;;;21.00;59.80;;;;;;5002303;28;20494;-67
2024/02/04 09:42:46;;;;;;;9.20;8.70;;;21.00;59.50;;;;;;5006167;28;20465;-67
2024/02/04 09:45:17;;;;;;;9.80;9.10;;;21.10;59.60;;;;;;5002504;28;20464;-67
2024/02/04 09:47:46;;;;;;;8.77;8.57;;;21.10;59.40;;;;;;4994101;28;20453;-71
2024/02/04 09:50:13;;;;;;;9.23;8.93;;;21.10;59.40;;;;;;5001461;28;21006;-68
2024/02/04 09:52:41;;;;;;;9.03;8.83;;;21.20;59.50;;;;;;5004742;28;20470;-71
2024/02/04 09:55:11;;;;;;;9.90;9.60;;;21.20;59.20;;;;;;5005150;28;20488;-68
2024/02/04 09:57:38;;;;;;;10.13;9.93;;;21.20;59.30;;;;;;5000930;28;20470;-67
2024/02/04 10:00:08;;;;;;;9.23;8.80;;;21.20;59.10;;;;;;5004571;28;20997;-68
2024/02/04 10:02:37;;;;;;;9.00;8.80;;;21.20;58.80;;;;;;5001989;28;20450;-67
2024/02/04 10:05:04;;;;;;;9.13;8.90;;;21.30;59.00;;;;;;5001318;28;20864;-68
2024/02/04 10:07:31;;;;;;;9.70;8.73;;;21.30;59.10;;;;;;5001002;28;20445;-67
2024/02/04 10:09:58;;;;;;;8.83;8.63;;;21.30;59.10;;;;;;5000841;28;20503;-68
2024/02/04 10:12:25;;;;;;;8.73;8.53;;;21.30;59.00;;;;;;5002269;28;20482;-69
2024/02/04 10:14:52;;;;;;;9.30;9.10;;;21.40;59.10;;;;;;5004834;28;20474;-70
2024/02/04 10:17:20;;;;;;;9.57;9.17;;;21.40;59.00;;;;;;4996671;28;20474;-67
2024/02/04 10:19:53;;;;;;;8.70;8.50;;;21.40;58.90;;;;;;5001306;28;20467;-69
2024/02/04 10:22:29;;;;;;;9.10;8.80;;;21.40;58.80;;;;;;5001994;28;20447;-68
2024/02/04 10:25:12;;;;;;;8.77;8.57;;;21.40;58.70;;;;;;5004543;28;20445;-68
2024/02/04 10:27:42;;;;;;;8.90;8.70;;;21.40;58.70;;;;;;5000131;28;20541;-67
2024/02/04 10:30:13;;;;;;;9.20;8.80;;;21.40;58.70;;;;;;5000593;28;20502;-65
2024/02/04 10:32:45;;;;;;;8.30;8.10;;;21.50;59.50;;;;;;5003527;28;20465;-69
2024/02/04 10:35:14;;;;;;;8.63;8.43;;;21.50;59.00;;;;;;5003984;28;20568;-67
2024/02/04 10:37:41;;;;;;;8.37;8.23;;;21.50;58.70;;;;;;5000812;28;20521;-68
2024/02/04 10:40:09;;;;;;;9.17;8.97;;;21.50;58.50;;;;;;4995825;28;20472;-68
2024/02/04 10:42:37;;;;;;;8.70;8.50;;;21.50;58.40;;;;;;5001928;28;20479;-67
2024/02/04 10:45:08;;;;;;;9.20;9.00;;;21.60;58.50;;;;;;5003873;28;20500;-65
2024/02/04 10:47:38;;;;;;;8.50;8.30;;;21.60;58.60;;;;;;5001666;28;20519;-66
2024/02/04 10:50:07;;;;;;;9.23;9.03;;;21.60;58.60;;;;;;4997349;28;20471;-68
2024/02/04 10:52:38;;;;;;;9.70;9.30;;;21.60;58.60;;;;;;5002376;28;20816;-71
2024/02/04 10:55:09;;;;;;;8.50;8.20;;;21.60;58.50;;;;;;5004299;28;20482;-70
2024/02/04 10:57:39;;;;;;;8.67;8.40;;;21.60;58.60;;;;;;5006059;28;20446;-72
2024/02/04 11:00:08;;;;;;;8.70;8.50;;;21.70;58.40;;;;;;4997830;28;20498;-69
2024/02/04 11:02:42;;;;;;;8.50;8.30;;;21.60;58.40;;;;;;5002325;28;20447;-68
2024/02/04 11:05:11;;;;;;;8.60;8.30;;;21.60;58.30;;;;;;5003470;28;20508;-67
2024/02/04 11:07:43;;;;;;;8.30;8.10;;;21.70;58.40;;;;;;5001045;28;20882;-66
2024/02/04 11:10:15;;;;;;;8.97;8.67;;;21.70;58.30;;;;;;4997005;28;20830;-67
2024/02/04 11:12:47;;;;;;;8.30;8.10;;;21.70;58.20;;;;;;5003198;28;20469;-67
2024/02/04 11:15:17;;;;;;;9.47;8.40;;;21.70;58.10;;;;;;5003776;28;20504;-66
2024/02/04 11:18:17;;;;;;;8.93;8.40;;;21.70;57.90;;;;;;5000287;28;20478;-69
2024/02/04 11:21:02;;;;;;;8.67;8.47;;;21.80;57.90;;;;;;5000240;28;20841;-70
2024/02/04 11:23:53;;;;;;;8.40;8.20;;;21.80;59.90;;;;;;4999935;28;20474;-70
2024/02/04 11:26:30;;;;;;;8.33;8.13;;;21.80;60.20;;;;;;5003284;28;20457;-69
2024/02/04 11:29:06;;;;;;;8.80;8.50;;;21.90;59.70;;;;;;4997828;28;20447;-66
2024/02/04 11:31:33;;;;;;;9.30;8.90;;;21.90;59.40;;;;;;5001212;28;20463;-69
2024/02/04 11:34:01;;;;;;;8.90;8.70;;;21.90;59.30;;;;;;5003306;28;20474;-69
2024/02/04 11:36:28;;;;;;;9.00;8.80;;;22.00;60.30;;;;;;5002245;28;20470;-67
2024/02/04 11:38:56;;;;;;;8.60;8.40;;;22.00;59.20;;;;;;5000018;28;20481;-69
2024/02/04 11:41:24;;;;;;;8.20;8.00;;;22.00;58.90;;;;;;4998946;28;20474;-67
2024/02/04 11:43:54;;;;;;;8.90;8.70;;;22.10;58.90;;;;;;5003396;28;20444;-67
2024/02/04 11:46:21;;;;;;;8.50;8.30;;;22.10;58.70;;;;;;4995204;28;20443;-67
2024/02/04 11:48:54;;;;;;;7.93;7.72;;;22.10;58.70;;;;;;5007543;28;20440;-67
2024/02/04 11:51:23;;;;;;;8.53;8.33;;;22.20;58.40;;;;;;4998873;28;20219;-68
2024/02/04 11:53:51;;;;;;;8.67;8.47;;;22.30;58.10;;;;;;4985560;28;20453;-72
2024/02/04 11:56:19;;;;;;;8.93;8.73;;;22.30;58.10;;;;;;5003184;28;20508;-71
2024/02/04 11:58:47;;;;;;;8.90;8.70;;;22.30;58.00;;;;;;4991791;28;20883;-70
2024/02/04 12:01:14;;;;;;;8.27;8.07;;;22.30;57.90;;;;;;5000061;28;20498;-71
2024/02/04 12:03:41;;;;;;;8.40;8.10;;;22.30;57.80;;;;;;4996177;28;20485;-71
2024/02/04 12:06:08;;;;;;;8.33;8.07;;;22.40;57.90;;;;;;4995327;28;20469;-71
2024/02/04 12:08:35;;;;;;;8.57;8.37;;;22.40;57.80;;;;;;5004785;28;20455;-71
2024/02/04 12:11:03;;;;;;;8.60;8.40;;;22.40;57.70;;;;;;5021890;22;20577;-69
2024/02/04 12:13:37;;;;;;;8.77;8.57;;;22.40;57.70;;;;;;4999712;28;20442;-78
2024/02/04 12:16:05;;;;;;;8.00;7.90;;;22.40;57.70;;;;;;5006859;28;20618;-67
2024/02/04 12:18:32;;;;;;;9.07;8.87;;;22.50;57.80;;;;;;5003499;28;20471;-67
2024/02/04 12:20:59;;;;;;;10.10;9.73;;;22.50;57.70;;;;;;5006413;28;20519;-68
2024/02/04 12:23:28;;;;;;;9.00;8.80;;;22.60;57.70;;;;;;5005920;28;20814;-69
2024/02/04 12:25:55;;;;;;;8.60;8.40;;;22.60;57.70;;;;;;5007565;28;20497;-67
2024/02/04 12:28:21;;;;;;;9.10;8.90;;;22.60;57.50;;;;;;5006541;28;20879;-68
2024/02/04 12:30:55;;;;;;;8.90;8.70;;;22.60;57.50;;;;;;5002038;28;20827;-68
2024/02/04 12:33:22;;;;;;;9.53;9.23;;;22.60;57.40;;;;;;5006157;28;20442;-65
2024/02/04 12:35:55;;;;;;;9.47;9.27;;;22.70;57.40;;;;;;5002799;28;20861;-68
2024/02/04 12:38:22;;;;;;;9.40;9.20;;;22.70;57.40;;;;;;5002949;28;20475;-73
2024/02/04 12:40:50;;;;;;;9.40;9.20;;;22.70;57.30;;;;;;5006325;28;20485;-65
2024/02/04 12:43:17;;;;;;;8.70;8.50;;;22.80;57.30;;;;;;5006087;28;20477;-66
2024/02/04 12:45:44;;;;;;;9.63;9.33;;;22.80;57.30;;;;;;5003066;28;20961;-68
2024/02/04 12:48:17;;;;;;;9.40;9.20;;;22.80;57.10;;;;;;5002525;28;20474;-67
2024/02/04 12:50:44;;;;;;;9.73;9.43;;;22.90;57.10;;;;;;5005394;28;20542;-67